<?xml version="1.0" encoding="UTF-8" standalone="no" ?>
<gpx xmlns="http://www.topografix.com/GPX/1/1" xmlns:xsi="http://www.w3.org/2001/XMLSchema-instance" xsi:schemaLocation="http://www.topografix.com/GPX/1/1 http://www.topografix.com/GPX/1/1/gpx.xsd" version="1.1" creator="VisuGPX - https://www.visugpx.com">
  <metadata>
    <name>Tour de France 2019</name>
    <desc><![CDATA[4272km en 2 mois en tandem avec notre petit chien dans le panier avant]]></desc>
  </metadata>
  <trk>
    <name><![CDATA[Tracé 20191015-091825]]></name>
    <trkseg>
      <trkpt lat="42.96569" lon="9.34882">
        <ele>16.2</ele>
        <time>2019-10-15T07:18:37Z</time>
      </trkpt>
      <trkpt lat="42.9657" lon="9.34882">
        <ele>15.717</ele>
        <time>2019-10-15T07:20:52Z</time>
      </trkpt>
      <trkpt lat="42.96494" lon="9.34857">
        <ele>9.641</ele>
        <time>2019-10-15T07:29:58Z</time>
      </trkpt>
      <trkpt lat="42.96393" lon="9.34794">
        <ele>9.759</ele>
        <time>2019-10-15T07:30:31Z</time>
      </trkpt>
      <trkpt lat="42.96323" lon="9.34934">
        <ele>7.181</ele>
        <time>2019-10-15T07:31:04Z</time>
      </trkpt>
      <trkpt lat="42.96208" lon="9.34971">
        <ele>3.472</ele>
        <time>2019-10-15T07:31:37Z</time>
      </trkpt>
      <trkpt lat="42.96127" lon="9.35105">
        <ele>9.273</ele>
        <time>2019-10-15T07:32:10Z</time>
      </trkpt>
      <trkpt lat="42.96067" lon="9.35214">
        <ele>11.064</ele>
        <time>2019-10-15T07:32:43Z</time>
      </trkpt>
      <trkpt lat="42.96018" lon="9.35285">
        <ele>18.654</ele>
        <time>2019-10-15T07:33:16Z</time>
      </trkpt>
      <trkpt lat="42.96018" lon="9.35381">
        <ele>21.846</ele>
        <time>2019-10-15T07:33:49Z</time>
      </trkpt>
      <trkpt lat="42.95967" lon="9.35448">
        <ele>25.785</ele>
        <time>2019-10-15T07:34:22Z</time>
      </trkpt>
      <trkpt lat="42.9591" lon="9.35445">
        <ele>28.797</ele>
        <time>2019-10-15T07:34:55Z</time>
      </trkpt>
      <trkpt lat="42.95865" lon="9.35376">
        <ele>36.338</ele>
        <time>2019-10-15T07:35:28Z</time>
      </trkpt>
      <trkpt lat="42.95806" lon="9.35387">
        <ele>42.418</ele>
        <time>2019-10-15T07:36:01Z</time>
      </trkpt>
      <trkpt lat="42.95762" lon="9.3536">
        <ele>44.178</ele>
        <time>2019-10-15T07:36:34Z</time>
      </trkpt>
      <trkpt lat="42.95717" lon="9.35254">
        <ele>47.823</ele>
        <time>2019-10-15T07:37:07Z</time>
      </trkpt>
      <trkpt lat="42.95694" lon="9.35157">
        <ele>45.962</ele>
        <time>2019-10-15T07:37:40Z</time>
      </trkpt>
      <trkpt lat="42.95625" lon="9.35102">
        <ele>53.452</ele>
        <time>2019-10-15T07:38:16Z</time>
      </trkpt>
      <trkpt lat="42.95552" lon="9.35067">
        <ele>62.554</ele>
        <time>2019-10-15T07:38:49Z</time>
      </trkpt>
      <trkpt lat="42.95491" lon="9.35135">
        <ele>68.564</ele>
        <time>2019-10-15T07:39:22Z</time>
      </trkpt>
      <trkpt lat="42.95487" lon="9.35235">
        <ele>66.535</ele>
        <time>2019-10-15T07:39:55Z</time>
      </trkpt>
      <trkpt lat="42.95463" lon="9.35333">
        <ele>63.761</ele>
        <time>2019-10-15T07:40:28Z</time>
      </trkpt>
      <trkpt lat="42.95511" lon="9.3541">
        <ele>67.901</ele>
        <time>2019-10-15T07:41:01Z</time>
      </trkpt>
      <trkpt lat="42.9558" lon="9.35396">
        <ele>75.268</ele>
        <time>2019-10-15T07:41:34Z</time>
      </trkpt>
      <trkpt lat="42.95629" lon="9.35419">
        <ele>75.247</ele>
        <time>2019-10-15T07:42:07Z</time>
      </trkpt>
      <trkpt lat="42.95563" lon="9.35465">
        <ele>82.288</ele>
        <time>2019-10-15T07:42:40Z</time>
      </trkpt>
      <trkpt lat="42.955" lon="9.35491">
        <ele>87.983</ele>
        <time>2019-10-15T07:43:13Z</time>
      </trkpt>
      <trkpt lat="42.95448" lon="9.35432">
        <ele>91.934</ele>
        <time>2019-10-15T07:43:46Z</time>
      </trkpt>
      <trkpt lat="42.95391" lon="9.35456">
        <ele>96.462</ele>
        <time>2019-10-15T07:44:19Z</time>
      </trkpt>
      <trkpt lat="42.95375" lon="9.35488">
        <ele>102.127</ele>
        <time>2019-10-15T07:44:55Z</time>
      </trkpt>
      <trkpt lat="42.95367" lon="9.35573">
        <ele>105.325</ele>
        <time>2019-10-15T07:45:31Z</time>
      </trkpt>
      <trkpt lat="42.95325" lon="9.35623">
        <ele>106.786</ele>
        <time>2019-10-15T07:46:04Z</time>
      </trkpt>
      <trkpt lat="42.95272" lon="9.35647">
        <ele>110.094</ele>
        <time>2019-10-15T07:46:37Z</time>
      </trkpt>
      <trkpt lat="42.95229" lon="9.35724">
        <ele>122.991</ele>
        <time>2019-10-15T07:47:22Z</time>
      </trkpt>
      <trkpt lat="42.95218" lon="9.35804">
        <ele>127.266</ele>
        <time>2019-10-15T07:47:58Z</time>
      </trkpt>
      <trkpt lat="42.95171" lon="9.35831">
        <ele>130.478</ele>
        <time>2019-10-15T07:48:34.001Z</time>
      </trkpt>
      <trkpt lat="42.95145" lon="9.35822">
        <ele>134.532</ele>
        <time>2019-10-15T07:49:13.001Z</time>
      </trkpt>
      <trkpt lat="42.95115" lon="9.35894">
        <ele>140.892</ele>
        <time>2019-10-15T07:49:52.001Z</time>
      </trkpt>
      <trkpt lat="42.95077" lon="9.35951">
        <ele>146.382</ele>
        <time>2019-10-15T07:50:25.001Z</time>
      </trkpt>
      <trkpt lat="42.95009" lon="9.35988">
        <ele>148.663</ele>
        <time>2019-10-15T07:51:04.001Z</time>
      </trkpt>
      <trkpt lat="42.94981" lon="9.36077">
        <ele>146.668</ele>
        <time>2019-10-15T07:51:37.001Z</time>
      </trkpt>
      <trkpt lat="42.94983" lon="9.3616">
        <ele>153.919</ele>
        <time>2019-10-15T07:52:13.001Z</time>
      </trkpt>
      <trkpt lat="42.94974" lon="9.362">
        <ele>163.494</ele>
        <time>2019-10-15T07:52:46.001Z</time>
      </trkpt>
      <trkpt lat="42.94935" lon="9.36134">
        <ele>164.644</ele>
        <time>2019-10-15T07:53:22.001Z</time>
      </trkpt>
      <trkpt lat="42.94885" lon="9.36184">
        <ele>164.409</ele>
        <time>2019-10-15T07:53:55.001Z</time>
      </trkpt>
      <trkpt lat="42.94865" lon="9.36262">
        <ele>170.798</ele>
        <time>2019-10-15T07:54:28.001Z</time>
      </trkpt>
      <trkpt lat="42.94833" lon="9.36338">
        <ele>174.104</ele>
        <time>2019-10-15T07:55:01.001Z</time>
      </trkpt>
      <trkpt lat="42.9481" lon="9.36418">
        <ele>175.501</ele>
        <time>2019-10-15T07:55:34.001Z</time>
      </trkpt>
      <trkpt lat="42.94754" lon="9.36477">
        <ele>182.625</ele>
        <time>2019-10-15T07:56:07.001Z</time>
      </trkpt>
      <trkpt lat="42.9461" lon="9.36443">
        <ele>186.489</ele>
        <time>2019-10-15T07:56:40.001Z</time>
      </trkpt>
      <trkpt lat="42.94537" lon="9.36391">
        <ele>185.688</ele>
        <time>2019-10-15T07:57:16Z</time>
      </trkpt>
      <trkpt lat="42.94484" lon="9.36464">
        <ele>185.423</ele>
        <time>2019-10-15T07:57:49.001Z</time>
      </trkpt>
      <trkpt lat="42.9445" lon="9.36542">
        <ele>188.664</ele>
        <time>2019-10-15T07:58:22.001Z</time>
      </trkpt>
      <trkpt lat="42.94464" lon="9.36618">
        <ele>189.915</ele>
        <time>2019-10-15T07:58:55.001Z</time>
      </trkpt>
      <trkpt lat="42.94402" lon="9.36706">
        <ele>195.041</ele>
        <time>2019-10-15T07:59:28.001Z</time>
      </trkpt>
      <trkpt lat="42.94341" lon="9.36792">
        <ele>192.787</ele>
        <time>2019-10-15T08:00:01.001Z</time>
      </trkpt>
      <trkpt lat="42.94308" lon="9.36921">
        <ele>192.89</ele>
        <time>2019-10-15T08:01:31.001Z</time>
      </trkpt>
      <trkpt lat="42.94204" lon="9.37072">
        <ele>193.228</ele>
        <time>2019-10-15T08:02:04.001Z</time>
      </trkpt>
      <trkpt lat="42.94188" lon="9.36923">
        <ele>180.986</ele>
        <time>2019-10-15T08:02:37.001Z</time>
      </trkpt>
      <trkpt lat="42.94144" lon="9.36707">
        <ele>177.883</ele>
        <time>2019-10-15T08:03:10.001Z</time>
      </trkpt>
      <trkpt lat="42.94102" lon="9.36516">
        <ele>186.017</ele>
        <time>2019-10-15T08:03:43.001Z</time>
      </trkpt>
      <trkpt lat="42.94038" lon="9.36429">
        <ele>186.203</ele>
        <time>2019-10-15T08:06:19.001Z</time>
      </trkpt>
      <trkpt lat="42.93923" lon="9.36227">
        <ele>179.644</ele>
        <time>2019-10-15T08:06:52.001Z</time>
      </trkpt>
      <trkpt lat="42.93801" lon="9.36061">
        <ele>167.754</ele>
        <time>2019-10-15T08:07:25.001Z</time>
      </trkpt>
      <trkpt lat="42.93719" lon="9.3577">
        <ele>147.535</ele>
        <time>2019-10-15T08:07:58.001Z</time>
      </trkpt>
      <trkpt lat="42.93511" lon="9.35456">
        <ele>131.273</ele>
        <time>2019-10-15T08:08:31.001Z</time>
      </trkpt>
      <trkpt lat="42.93297" lon="9.35209">
        <ele>117.109</ele>
        <time>2019-10-15T08:09:04.001Z</time>
      </trkpt>
      <trkpt lat="42.93103" lon="9.35246">
        <ele>102.692</ele>
        <time>2019-10-15T08:09:40.001Z</time>
      </trkpt>
      <trkpt lat="42.93082" lon="9.35385">
        <ele>100.568</ele>
        <time>2019-10-15T08:10:40.001Z</time>
      </trkpt>
      <trkpt lat="42.92978" lon="9.35616">
        <ele>89.69</ele>
        <time>2019-10-15T08:11:13.001Z</time>
      </trkpt>
      <trkpt lat="42.92836" lon="9.3579">
        <ele>71.699</ele>
        <time>2019-10-15T08:11:46.001Z</time>
      </trkpt>
      <trkpt lat="42.9294" lon="9.35954">
        <ele>62.264</ele>
        <time>2019-10-15T08:12:19.001Z</time>
      </trkpt>
      <trkpt lat="42.92918" lon="9.36238">
        <ele>49.256</ele>
        <time>2019-10-15T08:12:52.001Z</time>
      </trkpt>
      <trkpt lat="42.92706" lon="9.36081">
        <ele>31.998</ele>
        <time>2019-10-15T08:13:25.001Z</time>
      </trkpt>
      <trkpt lat="42.92573" lon="9.36295">
        <ele>21.411</ele>
        <time>2019-10-15T08:13:58.001Z</time>
      </trkpt>
      <trkpt lat="42.9249" lon="9.36534">
        <ele>8.479</ele>
        <time>2019-10-15T08:14:31.001Z</time>
      </trkpt>
      <trkpt lat="42.92463" lon="9.36344">
        <ele>12.154</ele>
        <time>2019-10-15T08:15:04.001Z</time>
      </trkpt>
      <trkpt lat="42.92377" lon="9.36368">
        <ele>14.751</ele>
        <time>2019-10-15T08:15:37.001Z</time>
      </trkpt>
      <trkpt lat="42.92309" lon="9.36364">
        <ele>21.081</ele>
        <time>2019-10-15T08:16:10.001Z</time>
      </trkpt>
      <trkpt lat="42.92368" lon="9.36286">
        <ele>27.262</ele>
        <time>2019-10-15T08:16:43.001Z</time>
      </trkpt>
      <trkpt lat="42.92348" lon="9.36176">
        <ele>30.566</ele>
        <time>2019-10-15T08:17:16Z</time>
      </trkpt>
      <trkpt lat="42.92303" lon="9.36081">
        <ele>33.396</ele>
        <time>2019-10-15T08:17:49.001Z</time>
      </trkpt>
      <trkpt lat="42.92216" lon="9.36097">
        <ele>31.718</ele>
        <time>2019-10-15T08:18:22.001Z</time>
      </trkpt>
      <trkpt lat="42.92129" lon="9.36132">
        <ele>36.307</ele>
        <time>2019-10-15T08:18:58.001Z</time>
      </trkpt>
      <trkpt lat="42.92137" lon="9.36024">
        <ele>41.634</ele>
        <time>2019-10-15T08:19:31.001Z</time>
      </trkpt>
      <trkpt lat="42.92056" lon="9.36013">
        <ele>44.215</ele>
        <time>2019-10-15T08:20:04.001Z</time>
      </trkpt>
      <trkpt lat="42.9203" lon="9.35966">
        <ele>48.781</ele>
        <time>2019-10-15T08:20:37.001Z</time>
      </trkpt>
      <trkpt lat="42.92114" lon="9.35882">
        <ele>49.275</ele>
        <time>2019-10-15T08:21:10.001Z</time>
      </trkpt>
      <trkpt lat="42.92192" lon="9.35799">
        <ele>48.813</ele>
        <time>2019-10-15T08:21:43.001Z</time>
      </trkpt>
      <trkpt lat="42.92086" lon="9.3577">
        <ele>50.056</ele>
        <time>2019-10-15T08:22:16Z</time>
      </trkpt>
      <trkpt lat="42.92017" lon="9.35677">
        <ele>52.355</ele>
        <time>2019-10-15T08:22:49.001Z</time>
      </trkpt>
      <trkpt lat="42.91923" lon="9.35651">
        <ele>52.844</ele>
        <time>2019-10-15T08:23:22.001Z</time>
      </trkpt>
      <trkpt lat="42.91832" lon="9.3567">
        <ele>56.408</ele>
        <time>2019-10-15T08:23:55.001Z</time>
      </trkpt>
      <trkpt lat="42.91769" lon="9.35758">
        <ele>57.654</ele>
        <time>2019-10-15T08:24:28.001Z</time>
      </trkpt>
      <trkpt lat="42.91717" lon="9.35855">
        <ele>57.064</ele>
        <time>2019-10-15T08:25:01.001Z</time>
      </trkpt>
      <trkpt lat="42.91659" lon="9.35946">
        <ele>58.423</ele>
        <time>2019-10-15T08:25:34.001Z</time>
      </trkpt>
      <trkpt lat="42.91625" lon="9.35913">
        <ele>68.132</ele>
        <time>2019-10-15T08:26:07.001Z</time>
      </trkpt>
      <trkpt lat="42.91641" lon="9.3581">
        <ele>74.936</ele>
        <time>2019-10-15T08:26:40.001Z</time>
      </trkpt>
      <trkpt lat="42.91588" lon="9.35829">
        <ele>76.504</ele>
        <time>2019-10-15T08:27:13.001Z</time>
      </trkpt>
      <trkpt lat="42.91529" lon="9.35906">
        <ele>80.102</ele>
        <time>2019-10-15T08:27:49.001Z</time>
      </trkpt>
      <trkpt lat="42.91454" lon="9.35974">
        <ele>83.343</ele>
        <time>2019-10-15T08:28:31.001Z</time>
      </trkpt>
      <trkpt lat="42.91392" lon="9.3603">
        <ele>89.904</ele>
        <time>2019-10-15T08:29:07.001Z</time>
      </trkpt>
      <trkpt lat="42.91395" lon="9.35962">
        <ele>102.502</ele>
        <time>2019-10-15T08:30:01.001Z</time>
      </trkpt>
      <trkpt lat="42.91436" lon="9.35871">
        <ele>106.439</ele>
        <time>2019-10-15T08:30:40.001Z</time>
      </trkpt>
      <trkpt lat="42.91449" lon="9.35758">
        <ele>109.052</ele>
        <time>2019-10-15T08:31:13.001Z</time>
      </trkpt>
      <trkpt lat="42.91467" lon="9.35655">
        <ele>115.566</ele>
        <time>2019-10-15T08:31:46.001Z</time>
      </trkpt>
      <trkpt lat="42.91432" lon="9.35581">
        <ele>119.839</ele>
        <time>2019-10-15T08:32:19.001Z</time>
      </trkpt>
      <trkpt lat="42.91427" lon="9.355">
        <ele>121.033</ele>
        <time>2019-10-15T08:32:58.001Z</time>
      </trkpt>
      <trkpt lat="42.91474" lon="9.35417">
        <ele>121.518</ele>
        <time>2019-10-15T08:33:31.001Z</time>
      </trkpt>
      <trkpt lat="42.91507" lon="9.35328">
        <ele>123.564</ele>
        <time>2019-10-15T08:34:04.001Z</time>
      </trkpt>
      <trkpt lat="42.9147" lon="9.35262">
        <ele>125.147</ele>
        <time>2019-10-15T08:34:40.001Z</time>
      </trkpt>
      <trkpt lat="42.9139" lon="9.35215">
        <ele>131.387</ele>
        <time>2019-10-15T08:35:13.001Z</time>
      </trkpt>
      <trkpt lat="42.91305" lon="9.35211">
        <ele>129.309</ele>
        <time>2019-10-15T08:35:46.001Z</time>
      </trkpt>
      <trkpt lat="42.91234" lon="9.35272">
        <ele>131.239</ele>
        <time>2019-10-15T08:36:19.001Z</time>
      </trkpt>
      <trkpt lat="42.91156" lon="9.35319">
        <ele>135.605</ele>
        <time>2019-10-15T08:36:55.001Z</time>
      </trkpt>
      <trkpt lat="42.91085" lon="9.35314">
        <ele>144.653</ele>
        <time>2019-10-15T08:37:28.001Z</time>
      </trkpt>
      <trkpt lat="42.91003" lon="9.3531">
        <ele>152.395</ele>
        <time>2019-10-15T08:38:07.001Z</time>
      </trkpt>
      <trkpt lat="42.90908" lon="9.35341">
        <ele>150.734</ele>
        <time>2019-10-15T08:38:43.001Z</time>
      </trkpt>
      <trkpt lat="42.90882" lon="9.35268">
        <ele>158.885</ele>
        <time>2019-10-15T08:39:25.001Z</time>
      </trkpt>
      <trkpt lat="42.90846" lon="9.35155">
        <ele>155.093</ele>
        <time>2019-10-15T08:39:58.001Z</time>
      </trkpt>
      <trkpt lat="42.90774" lon="9.35122">
        <ele>153.072</ele>
        <time>2019-10-15T08:40:34.001Z</time>
      </trkpt>
      <trkpt lat="42.90756" lon="9.35116">
        <ele>150.669</ele>
        <time>2019-10-15T09:02:34.001Z</time>
      </trkpt>
      <trkpt lat="42.90754" lon="9.35112">
        <ele>149.218</ele>
        <time>2019-10-15T09:13:46.001Z</time>
      </trkpt>
      <trkpt lat="42.90747" lon="9.34982">
        <ele>145.031</ele>
        <time>2019-10-15T09:15:10.001Z</time>
      </trkpt>
      <trkpt lat="42.90642" lon="9.34893">
        <ele>143.39</ele>
        <time>2019-10-15T09:15:43.001Z</time>
      </trkpt>
      <trkpt lat="42.90627" lon="9.34807">
        <ele>142.863</ele>
        <time>2019-10-15T09:16:16Z</time>
      </trkpt>
      <trkpt lat="42.90697" lon="9.34601">
        <ele>141.204</ele>
        <time>2019-10-15T09:16:49.001Z</time>
      </trkpt>
      <trkpt lat="42.90778" lon="9.34396">
        <ele>139.825</ele>
        <time>2019-10-15T09:17:22.001Z</time>
      </trkpt>
      <trkpt lat="42.90656" lon="9.34323">
        <ele>141.931</ele>
        <time>2019-10-15T09:17:55.001Z</time>
      </trkpt>
      <trkpt lat="42.90612" lon="9.34165">
        <ele>149.249</ele>
        <time>2019-10-15T09:18:28.001Z</time>
      </trkpt>
      <trkpt lat="42.90591" lon="9.33972">
        <ele>138.139</ele>
        <time>2019-10-15T09:19:01.001Z</time>
      </trkpt>
      <trkpt lat="42.90444" lon="9.33914">
        <ele>139.514</ele>
        <time>2019-10-15T09:19:34.001Z</time>
      </trkpt>
      <trkpt lat="42.90399" lon="9.3385">
        <ele>140.722</ele>
        <time>2019-10-15T09:20:07.001Z</time>
      </trkpt>
      <trkpt lat="42.90378" lon="9.33623">
        <ele>137.575</ele>
        <time>2019-10-15T09:20:43.001Z</time>
      </trkpt>
      <trkpt lat="42.90339" lon="9.3342">
        <ele>135.263</ele>
        <time>2019-10-15T09:21:16Z</time>
      </trkpt>
      <trkpt lat="42.90293" lon="9.33215">
        <ele>136.094</ele>
        <time>2019-10-15T09:21:49.001Z</time>
      </trkpt>
      <trkpt lat="42.90188" lon="9.33032">
        <ele>138.145</ele>
        <time>2019-10-15T09:22:22.001Z</time>
      </trkpt>
      <trkpt lat="42.9004" lon="9.32954">
        <ele>134.749</ele>
        <time>2019-10-15T09:22:55.001Z</time>
      </trkpt>
      <trkpt lat="42.89908" lon="9.32978">
        <ele>130.374</ele>
        <time>2019-10-15T09:23:28.001Z</time>
      </trkpt>
      <trkpt lat="42.89867" lon="9.32767">
        <ele>129.886</ele>
        <time>2019-10-15T09:24:01.001Z</time>
      </trkpt>
      <trkpt lat="42.89865" lon="9.3256">
        <ele>132.656</ele>
        <time>2019-10-15T09:24:34.001Z</time>
      </trkpt>
      <trkpt lat="42.89851" lon="9.32447">
        <ele>130.053</ele>
        <time>2019-10-15T09:26:43.001Z</time>
      </trkpt>
      <trkpt lat="42.89754" lon="9.32438">
        <ele>134.244</ele>
        <time>2019-10-15T09:27:16Z</time>
      </trkpt>
      <trkpt lat="42.89654" lon="9.32388">
        <ele>142.664</ele>
        <time>2019-10-15T09:27:49.001Z</time>
      </trkpt>
      <trkpt lat="42.89543" lon="9.32332">
        <ele>149.688</ele>
        <time>2019-10-15T09:28:22.001Z</time>
      </trkpt>
      <trkpt lat="42.89436" lon="9.32307">
        <ele>148.323</ele>
        <time>2019-10-15T09:28:55.001Z</time>
      </trkpt>
      <trkpt lat="42.89368" lon="9.32421">
        <ele>145.322</ele>
        <time>2019-10-15T09:29:28.001Z</time>
      </trkpt>
      <trkpt lat="42.89331" lon="9.32554">
        <ele>145.336</ele>
        <time>2019-10-15T09:30:01.001Z</time>
      </trkpt>
      <trkpt lat="42.89314" lon="9.32689">
        <ele>143.075</ele>
        <time>2019-10-15T09:30:34.001Z</time>
      </trkpt>
      <trkpt lat="42.89276" lon="9.32786">
        <ele>155.472</ele>
        <time>2019-10-15T09:31:07.001Z</time>
      </trkpt>
      <trkpt lat="42.89213" lon="9.32865">
        <ele>156.088</ele>
        <time>2019-10-15T09:31:43.001Z</time>
      </trkpt>
      <trkpt lat="42.89185" lon="9.32966">
        <ele>155.225</ele>
        <time>2019-10-15T09:32:16Z</time>
      </trkpt>
      <trkpt lat="42.89157" lon="9.33057">
        <ele>157.498</ele>
        <time>2019-10-15T09:32:49.001Z</time>
      </trkpt>
      <trkpt lat="42.89124" lon="9.33138">
        <ele>166.191</ele>
        <time>2019-10-15T09:33:22.001Z</time>
      </trkpt>
      <trkpt lat="42.8913" lon="9.33229">
        <ele>166.302</ele>
        <time>2019-10-15T09:33:55.001Z</time>
      </trkpt>
      <trkpt lat="42.89073" lon="9.33298">
        <ele>171.88</ele>
        <time>2019-10-15T09:34:28.001Z</time>
      </trkpt>
      <trkpt lat="42.89053" lon="9.33399">
        <ele>178.651</ele>
        <time>2019-10-15T09:35:01.001Z</time>
      </trkpt>
      <trkpt lat="42.88983" lon="9.33411">
        <ele>191.815</ele>
        <time>2019-10-15T09:35:34.001Z</time>
      </trkpt>
      <trkpt lat="42.88914" lon="9.33453">
        <ele>195.668</ele>
        <time>2019-10-15T09:36:07.001Z</time>
      </trkpt>
      <trkpt lat="42.88842" lon="9.33444">
        <ele>199.899</ele>
        <time>2019-10-15T09:36:40.001Z</time>
      </trkpt>
      <trkpt lat="42.88767" lon="9.33458">
        <ele>201.321</ele>
        <time>2019-10-15T09:37:13.001Z</time>
      </trkpt>
      <trkpt lat="42.88673" lon="9.33532">
        <ele>198.314</ele>
        <time>2019-10-15T09:37:46.001Z</time>
      </trkpt>
      <trkpt lat="42.88521" lon="9.33347">
        <ele>197.789</ele>
        <time>2019-10-15T09:38:19.001Z</time>
      </trkpt>
      <trkpt lat="42.88401" lon="9.33447">
        <ele>191.115</ele>
        <time>2019-10-15T09:38:52.001Z</time>
      </trkpt>
      <trkpt lat="42.88323" lon="9.33313">
        <ele>190.874</ele>
        <time>2019-10-15T09:39:25.001Z</time>
      </trkpt>
      <trkpt lat="42.88227" lon="9.33173">
        <ele>190.837</ele>
        <time>2019-10-15T09:39:58.001Z</time>
      </trkpt>
      <trkpt lat="42.88146" lon="9.33146">
        <ele>191.46</ele>
        <time>2019-10-15T09:40:58.001Z</time>
      </trkpt>
      <trkpt lat="42.87994" lon="9.33074">
        <ele>187.256</ele>
        <time>2019-10-15T09:41:34.001Z</time>
      </trkpt>
      <trkpt lat="42.87843" lon="9.33058">
        <ele>183.691</ele>
        <time>2019-10-15T09:42:07.001Z</time>
      </trkpt>
      <trkpt lat="42.87707" lon="9.33063">
        <ele>182.313</ele>
        <time>2019-10-15T09:42:40.001Z</time>
      </trkpt>
      <trkpt lat="42.87573" lon="9.33233">
        <ele>171.15</ele>
        <time>2019-10-15T09:43:13.001Z</time>
      </trkpt>
      <trkpt lat="42.87396" lon="9.33198">
        <ele>157.234</ele>
        <time>2019-10-15T09:43:46.001Z</time>
      </trkpt>
      <trkpt lat="42.87271" lon="9.33334">
        <ele>140.45</ele>
        <time>2019-10-15T09:44:19.001Z</time>
      </trkpt>
      <trkpt lat="42.87221" lon="9.3356">
        <ele>125.546</ele>
        <time>2019-10-15T09:44:52.001Z</time>
      </trkpt>
      <trkpt lat="42.87059" lon="9.33801">
        <ele>111.219</ele>
        <time>2019-10-15T09:45:25.001Z</time>
      </trkpt>
      <trkpt lat="42.87053" lon="9.34088">
        <ele>99.967</ele>
        <time>2019-10-15T09:45:58.001Z</time>
      </trkpt>
      <trkpt lat="42.86984" lon="9.34358">
        <ele>82.571</ele>
        <time>2019-10-15T09:46:31.001Z</time>
      </trkpt>
      <trkpt lat="42.86967" lon="9.34574">
        <ele>70.14</ele>
        <time>2019-10-15T09:47:04.001Z</time>
      </trkpt>
      <trkpt lat="42.86952" lon="9.34762">
        <ele>55.383</ele>
        <time>2019-10-15T09:47:37.001Z</time>
      </trkpt>
      <trkpt lat="42.86785" lon="9.34908">
        <ele>41.987</ele>
        <time>2019-10-15T09:48:10.001Z</time>
      </trkpt>
      <trkpt lat="42.8673" lon="9.34874">
        <ele>34.517</ele>
        <time>2019-10-15T09:48:43.001Z</time>
      </trkpt>
      <trkpt lat="42.86562" lon="9.34839">
        <ele>24.297</ele>
        <time>2019-10-15T09:49:16Z</time>
      </trkpt>
      <trkpt lat="42.8652" lon="9.34679">
        <ele>26.284</ele>
        <time>2019-10-15T09:49:49.001Z</time>
      </trkpt>
      <trkpt lat="42.86497" lon="9.34551">
        <ele>36.171</ele>
        <time>2019-10-15T09:50:25.001Z</time>
      </trkpt>
      <trkpt lat="42.86492" lon="9.34444">
        <ele>46.678</ele>
        <time>2019-10-15T09:50:58.001Z</time>
      </trkpt>
      <trkpt lat="42.86472" lon="9.34336">
        <ele>48.258</ele>
        <time>2019-10-15T09:51:31.001Z</time>
      </trkpt>
      <trkpt lat="42.86408" lon="9.34297">
        <ele>45.524</ele>
        <time>2019-10-15T09:52:04.001Z</time>
      </trkpt>
      <trkpt lat="42.86382" lon="9.3421">
        <ele>50.613</ele>
        <time>2019-10-15T09:52:37.001Z</time>
      </trkpt>
      <trkpt lat="42.86424" lon="9.34136">
        <ele>54.035</ele>
        <time>2019-10-15T09:53:10.001Z</time>
      </trkpt>
      <trkpt lat="42.86444" lon="9.34038">
        <ele>54.571</ele>
        <time>2019-10-15T09:53:43.001Z</time>
      </trkpt>
      <trkpt lat="42.86438" lon="9.33933">
        <ele>60.802</ele>
        <time>2019-10-15T09:54:16Z</time>
      </trkpt>
      <trkpt lat="42.86422" lon="9.33841">
        <ele>63.915</ele>
        <time>2019-10-15T09:54:49.001Z</time>
      </trkpt>
      <trkpt lat="42.86349" lon="9.3385">
        <ele>67.421</ele>
        <time>2019-10-15T09:55:22.001Z</time>
      </trkpt>
      <trkpt lat="42.86346" lon="9.3375">
        <ele>72.98</ele>
        <time>2019-10-15T09:55:55.001Z</time>
      </trkpt>
      <trkpt lat="42.86365" lon="9.33699">
        <ele>72.834</ele>
        <time>2019-10-15T09:59:13.001Z</time>
      </trkpt>
      <trkpt lat="42.86343" lon="9.33614">
        <ele>73.627</ele>
        <time>2019-10-15T09:59:46.001Z</time>
      </trkpt>
      <trkpt lat="42.86299" lon="9.33534">
        <ele>78.546</ele>
        <time>2019-10-15T10:00:19.001Z</time>
      </trkpt>
      <trkpt lat="42.86236" lon="9.3348">
        <ele>79.912</ele>
        <time>2019-10-15T10:00:52.001Z</time>
      </trkpt>
      <trkpt lat="42.86169" lon="9.33537">
        <ele>80.632</ele>
        <time>2019-10-15T10:01:25.001Z</time>
      </trkpt>
      <trkpt lat="42.8612" lon="9.33632">
        <ele>81.455</ele>
        <time>2019-10-15T10:01:58.001Z</time>
      </trkpt>
      <trkpt lat="42.86055" lon="9.33627">
        <ele>80.746</ele>
        <time>2019-10-15T10:02:34.001Z</time>
      </trkpt>
      <trkpt lat="42.85977" lon="9.33576">
        <ele>82.866</ele>
        <time>2019-10-15T10:03:07.001Z</time>
      </trkpt>
      <trkpt lat="42.85916" lon="9.335">
        <ele>87.139</ele>
        <time>2019-10-15T10:03:40.001Z</time>
      </trkpt>
      <trkpt lat="42.85849" lon="9.33499">
        <ele>92.02</ele>
        <time>2019-10-15T10:04:13.001Z</time>
      </trkpt>
      <trkpt lat="42.8577" lon="9.33507">
        <ele>97.52</ele>
        <time>2019-10-15T10:04:46.001Z</time>
      </trkpt>
      <trkpt lat="42.85712" lon="9.33436">
        <ele>99.892</ele>
        <time>2019-10-15T10:05:19.001Z</time>
      </trkpt>
      <trkpt lat="42.85693" lon="9.33332">
        <ele>91.673</ele>
        <time>2019-10-15T10:05:52.001Z</time>
      </trkpt>
      <trkpt lat="42.8562" lon="9.33272">
        <ele>97.867</ele>
        <time>2019-10-15T10:06:25.001Z</time>
      </trkpt>
      <trkpt lat="42.85544" lon="9.33274">
        <ele>107.047</ele>
        <time>2019-10-15T10:06:58.001Z</time>
      </trkpt>
      <trkpt lat="42.85464" lon="9.33295">
        <ele>110.067</ele>
        <time>2019-10-15T10:07:31.001Z</time>
      </trkpt>
      <trkpt lat="42.85384" lon="9.33255">
        <ele>113.704</ele>
        <time>2019-10-15T10:08:04.001Z</time>
      </trkpt>
      <trkpt lat="42.85308" lon="9.33217">
        <ele>120.888</ele>
        <time>2019-10-15T10:08:37.001Z</time>
      </trkpt>
      <trkpt lat="42.85234" lon="9.33144">
        <ele>118.579</ele>
        <time>2019-10-15T10:09:10.001Z</time>
      </trkpt>
      <trkpt lat="42.85152" lon="9.33066">
        <ele>117.18</ele>
        <time>2019-10-15T10:09:43.001Z</time>
      </trkpt>
      <trkpt lat="42.85095" lon="9.32976">
        <ele>111.379</ele>
        <time>2019-10-15T10:10:16Z</time>
      </trkpt>
      <trkpt lat="42.85072" lon="9.32884">
        <ele>107.665</ele>
        <time>2019-10-15T10:10:49.001Z</time>
      </trkpt>
      <trkpt lat="42.84997" lon="9.32821">
        <ele>114.842</ele>
        <time>2019-10-15T10:11:22.001Z</time>
      </trkpt>
      <trkpt lat="42.84909" lon="9.32742">
        <ele>119.909</ele>
        <time>2019-10-15T10:11:58.001Z</time>
      </trkpt>
      <trkpt lat="42.84855" lon="9.32652">
        <ele>124.934</ele>
        <time>2019-10-15T10:12:31.001Z</time>
      </trkpt>
      <trkpt lat="42.8474" lon="9.32569">
        <ele>128.228</ele>
        <time>2019-10-15T10:13:04.001Z</time>
      </trkpt>
      <trkpt lat="42.84564" lon="9.32489">
        <ele>122.317</ele>
        <time>2019-10-15T10:13:37.001Z</time>
      </trkpt>
      <trkpt lat="42.84419" lon="9.32333">
        <ele>113.097</ele>
        <time>2019-10-15T10:14:10.001Z</time>
      </trkpt>
      <trkpt lat="42.84273" lon="9.32042">
        <ele>97.906</ele>
        <time>2019-10-15T10:14:43.001Z</time>
      </trkpt>
      <trkpt lat="42.84228" lon="9.31988">
        <ele>95.85</ele>
        <time>2019-10-15T10:16:22.001Z</time>
      </trkpt>
      <trkpt lat="42.84131" lon="9.32109">
        <ele>99.498</ele>
        <time>2019-10-15T10:16:55.001Z</time>
      </trkpt>
      <trkpt lat="42.84038" lon="9.31942">
        <ele>83.247</ele>
        <time>2019-10-15T10:17:28.001Z</time>
      </trkpt>
      <trkpt lat="42.83956" lon="9.31746">
        <ele>82.506</ele>
        <time>2019-10-15T10:18:01.001Z</time>
      </trkpt>
      <trkpt lat="42.83804" lon="9.31788">
        <ele>92.059</ele>
        <time>2019-10-15T10:18:34.001Z</time>
      </trkpt>
      <trkpt lat="42.83643" lon="9.31714">
        <ele>97.41</ele>
        <time>2019-10-15T10:19:07.001Z</time>
      </trkpt>
      <trkpt lat="42.83504" lon="9.3158">
        <ele>92.142</ele>
        <time>2019-10-15T10:19:40.001Z</time>
      </trkpt>
      <trkpt lat="42.8335" lon="9.31498">
        <ele>93.405</ele>
        <time>2019-10-15T10:20:13.001Z</time>
      </trkpt>
      <trkpt lat="42.83208" lon="9.31433">
        <ele>92.364</ele>
        <time>2019-10-15T10:20:46.001Z</time>
      </trkpt>
      <trkpt lat="42.83105" lon="9.31546">
        <ele>88.729</ele>
        <time>2019-10-15T10:21:19.001Z</time>
      </trkpt>
      <trkpt lat="42.82974" lon="9.3169">
        <ele>90.109</ele>
        <time>2019-10-15T10:21:55.001Z</time>
      </trkpt>
      <trkpt lat="42.82932" lon="9.3187">
        <ele>91.104</ele>
        <time>2019-10-15T10:22:28.001Z</time>
      </trkpt>
      <trkpt lat="42.82781" lon="9.31939">
        <ele>89.483</ele>
        <time>2019-10-15T10:23:01.001Z</time>
      </trkpt>
      <trkpt lat="42.82662" lon="9.32104">
        <ele>84.999</ele>
        <time>2019-10-15T10:23:34.001Z</time>
      </trkpt>
      <trkpt lat="42.82492" lon="9.32255">
        <ele>78.866</ele>
        <time>2019-10-15T10:24:07.001Z</time>
      </trkpt>
      <trkpt lat="42.82295" lon="9.32293">
        <ele>67.963</ele>
        <time>2019-10-15T10:24:40.001Z</time>
      </trkpt>
      <trkpt lat="42.8204" lon="9.32366">
        <ele>59.467</ele>
        <time>2019-10-15T10:25:13.001Z</time>
      </trkpt>
      <trkpt lat="42.81864" lon="9.32425">
        <ele>59.18</ele>
        <time>2019-10-15T10:25:46.001Z</time>
      </trkpt>
      <trkpt lat="42.81718" lon="9.32497">
        <ele>62.968</ele>
        <time>2019-10-15T10:26:19.001Z</time>
      </trkpt>
      <trkpt lat="42.81564" lon="9.32581">
        <ele>67.97</ele>
        <time>2019-10-15T10:26:52.001Z</time>
      </trkpt>
      <trkpt lat="42.81391" lon="9.32624">
        <ele>60.492</ele>
        <time>2019-10-15T10:27:25.001Z</time>
      </trkpt>
      <trkpt lat="42.81235" lon="9.32715">
        <ele>53.81</ele>
        <time>2019-10-15T10:27:58.001Z</time>
      </trkpt>
      <trkpt lat="42.81221" lon="9.33022">
        <ele>41.291</ele>
        <time>2019-10-15T10:28:31.001Z</time>
      </trkpt>
      <trkpt lat="42.81227" lon="9.33375">
        <ele>19.226</ele>
        <time>2019-10-15T10:29:04.001Z</time>
      </trkpt>
      <trkpt lat="42.81284" lon="9.33771">
        <ele>9</ele>
        <time>2019-10-15T10:29:37.001Z</time>
      </trkpt>
      <trkpt lat="42.81116" lon="9.33762">
        <ele>3.028</ele>
        <time>2019-10-15T10:30:10.001Z</time>
      </trkpt>
      <trkpt lat="42.81022" lon="9.33729">
        <ele>12.071</ele>
        <time>2019-10-15T10:30:43.001Z</time>
      </trkpt>
      <trkpt lat="42.80941" lon="9.33777">
        <ele>15.989</ele>
        <time>2019-10-15T10:31:19.001Z</time>
      </trkpt>
      <trkpt lat="42.8093" lon="9.3367">
        <ele>16.098</ele>
        <time>2019-10-15T10:31:52.001Z</time>
      </trkpt>
      <trkpt lat="42.80897" lon="9.33562">
        <ele>20.78</ele>
        <time>2019-10-15T10:32:25.001Z</time>
      </trkpt>
      <trkpt lat="42.80818" lon="9.33489">
        <ele>26.258</ele>
        <time>2019-10-15T10:32:58.001Z</time>
      </trkpt>
      <trkpt lat="42.80756" lon="9.33508">
        <ele>25.981</ele>
        <time>2019-10-15T10:33:31.001Z</time>
      </trkpt>
      <trkpt lat="42.80699" lon="9.33598">
        <ele>27.461</ele>
        <time>2019-10-15T10:34:04.001Z</time>
      </trkpt>
      <trkpt lat="42.80655" lon="9.33697">
        <ele>34.338</ele>
        <time>2019-10-15T10:34:37.001Z</time>
      </trkpt>
      <trkpt lat="42.80632" lon="9.33788">
        <ele>38.126</ele>
        <time>2019-10-15T10:35:10.001Z</time>
      </trkpt>
      <trkpt lat="42.80638" lon="9.33894">
        <ele>44.287</ele>
        <time>2019-10-15T10:35:43.001Z</time>
      </trkpt>
      <trkpt lat="42.8057" lon="9.33913">
        <ele>44.025</ele>
        <time>2019-10-15T10:36:16Z</time>
      </trkpt>
      <trkpt lat="42.80482" lon="9.33967">
        <ele>41.923</ele>
        <time>2019-10-15T10:36:49.001Z</time>
      </trkpt>
      <trkpt lat="42.80398" lon="9.34">
        <ele>41.924</ele>
        <time>2019-10-15T10:37:22.001Z</time>
      </trkpt>
      <trkpt lat="42.80323" lon="9.34062">
        <ele>44.972</ele>
        <time>2019-10-15T10:37:55.001Z</time>
      </trkpt>
      <trkpt lat="42.80309" lon="9.3417">
        <ele>47.996</ele>
        <time>2019-10-15T10:38:28.001Z</time>
      </trkpt>
      <trkpt lat="42.80275" lon="9.3426">
        <ele>57.396</ele>
        <time>2019-10-15T10:39:01.001Z</time>
      </trkpt>
      <trkpt lat="42.80199" lon="9.34277">
        <ele>58.693</ele>
        <time>2019-10-15T10:39:34.001Z</time>
      </trkpt>
      <trkpt lat="42.8016" lon="9.34354">
        <ele>62.868</ele>
        <time>2019-10-15T10:40:07.001Z</time>
      </trkpt>
      <trkpt lat="42.80071" lon="9.34379">
        <ele>64.488</ele>
        <time>2019-10-15T10:40:43.001Z</time>
      </trkpt>
      <trkpt lat="42.80037" lon="9.34478">
        <ele>65.38</ele>
        <time>2019-10-15T10:41:16Z</time>
      </trkpt>
      <trkpt lat="42.8" lon="9.34576">
        <ele>69.1</ele>
        <time>2019-10-15T10:41:49.001Z</time>
      </trkpt>
      <trkpt lat="42.8002" lon="9.3468">
        <ele>68.844</ele>
        <time>2019-10-15T10:42:22.001Z</time>
      </trkpt>
      <trkpt lat="42.79985" lon="9.34789">
        <ele>76.291</ele>
        <time>2019-10-15T10:42:55.001Z</time>
      </trkpt>
      <trkpt lat="42.79997" lon="9.34922">
        <ele>77.518</ele>
        <time>2019-10-15T10:43:28.001Z</time>
      </trkpt>
      <trkpt lat="42.79927" lon="9.34848">
        <ele>78.452</ele>
        <time>2019-10-15T10:44:01.001Z</time>
      </trkpt>
      <trkpt lat="42.79845" lon="9.34814">
        <ele>81.407</ele>
        <time>2019-10-15T10:44:34.001Z</time>
      </trkpt>
      <trkpt lat="42.7978" lon="9.34712">
        <ele>88.988</ele>
        <time>2019-10-15T10:45:07.001Z</time>
      </trkpt>
      <trkpt lat="42.79737" lon="9.34588">
        <ele>87.861</ele>
        <time>2019-10-15T10:45:40.001Z</time>
      </trkpt>
      <trkpt lat="42.79668" lon="9.34627">
        <ele>88.786</ele>
        <time>2019-10-15T10:46:13.001Z</time>
      </trkpt>
      <trkpt lat="42.79579" lon="9.3468">
        <ele>87.738</ele>
        <time>2019-10-15T10:46:46.001Z</time>
      </trkpt>
      <trkpt lat="42.79488" lon="9.34726">
        <ele>86.94</ele>
        <time>2019-10-15T10:47:19.001Z</time>
      </trkpt>
      <trkpt lat="42.79404" lon="9.34686">
        <ele>96.013</ele>
        <time>2019-10-15T10:47:52.001Z</time>
      </trkpt>
      <trkpt lat="42.79317" lon="9.34717">
        <ele>99.39</ele>
        <time>2019-10-15T10:48:25.001Z</time>
      </trkpt>
      <trkpt lat="42.79241" lon="9.3479">
        <ele>102.2</ele>
        <time>2019-10-15T10:48:58.001Z</time>
      </trkpt>
      <trkpt lat="42.79186" lon="9.34905">
        <ele>107.756</ele>
        <time>2019-10-15T10:49:34.001Z</time>
      </trkpt>
      <trkpt lat="42.79162" lon="9.35008">
        <ele>108.005</ele>
        <time>2019-10-15T10:56:49.001Z</time>
      </trkpt>
      <trkpt lat="42.79103" lon="9.35044">
        <ele>110.747</ele>
        <time>2019-10-15T10:57:28.001Z</time>
      </trkpt>
      <trkpt lat="42.79023" lon="9.35095">
        <ele>112.539</ele>
        <time>2019-10-15T10:58:01.001Z</time>
      </trkpt>
      <trkpt lat="42.78977" lon="9.35012">
        <ele>117.663</ele>
        <time>2019-10-15T10:58:34.001Z</time>
      </trkpt>
      <trkpt lat="42.78909" lon="9.34923">
        <ele>119.493</ele>
        <time>2019-10-15T10:59:07.001Z</time>
      </trkpt>
      <trkpt lat="42.7881" lon="9.34869">
        <ele>125.338</ele>
        <time>2019-10-15T10:59:40.001Z</time>
      </trkpt>
      <trkpt lat="42.7873" lon="9.34815">
        <ele>127.603</ele>
        <time>2019-10-15T11:00:13.001Z</time>
      </trkpt>
      <trkpt lat="42.78635" lon="9.34794">
        <ele>131.301</ele>
        <time>2019-10-15T11:00:46.001Z</time>
      </trkpt>
      <trkpt lat="42.78552" lon="9.34745">
        <ele>138.627</ele>
        <time>2019-10-15T11:01:19.001Z</time>
      </trkpt>
      <trkpt lat="42.78527" lon="9.34634">
        <ele>136.997</ele>
        <time>2019-10-15T11:01:52.001Z</time>
      </trkpt>
      <trkpt lat="42.78507" lon="9.34519">
        <ele>138.025</ele>
        <time>2019-10-15T11:02:25.001Z</time>
      </trkpt>
      <trkpt lat="42.78476" lon="9.3448">
        <ele>138.688</ele>
        <time>2019-10-15T11:03:22.001Z</time>
      </trkpt>
      <trkpt lat="42.78469" lon="9.34475">
        <ele>140.121</ele>
        <time>2019-10-15T11:13:01.001Z</time>
      </trkpt>
      <trkpt lat="42.78477" lon="9.3448">
        <ele>137.683</ele>
        <time>2019-10-15T11:15:22.001Z</time>
      </trkpt>
      <trkpt lat="42.78485" lon="9.34468">
        <ele>132.088</ele>
        <time>2019-10-15T11:17:19.001Z</time>
      </trkpt>
      <trkpt lat="42.78466" lon="9.3447">
        <ele>131.403</ele>
        <time>2019-10-15T11:20:01.001Z</time>
      </trkpt>
      <trkpt lat="42.78463" lon="9.34468">
        <ele>129.666</ele>
        <time>2019-10-15T11:25:49.001Z</time>
      </trkpt>
      <trkpt lat="42.78468" lon="9.34483">
        <ele>120.701</ele>
        <time>2019-10-15T12:11:34.001Z</time>
      </trkpt>
      <trkpt lat="42.78476" lon="9.34483">
        <ele>123.048</ele>
        <time>2019-10-15T12:16:01.001Z</time>
      </trkpt>
      <trkpt lat="42.78481" lon="9.3449">
        <ele>128.252</ele>
        <time>2019-10-15T12:17:40.001Z</time>
      </trkpt>
      <trkpt lat="42.78482" lon="9.3449">
        <ele>129.062</ele>
        <time>2019-10-15T12:18:43.001Z</time>
      </trkpt>
      <trkpt lat="42.78505" lon="9.34499">
        <ele>128.295</ele>
        <time>2019-10-15T12:20:28.001Z</time>
      </trkpt>
      <trkpt lat="42.78506" lon="9.34476">
        <ele>130.488</ele>
        <time>2019-10-15T12:21:46.001Z</time>
      </trkpt>
      <trkpt lat="42.78509" lon="9.34426">
        <ele>136.844</ele>
        <time>2019-10-15T12:23:07.001Z</time>
      </trkpt>
      <trkpt lat="42.78499" lon="9.34405">
        <ele>142.666</ele>
        <time>2019-10-15T12:24:13.001Z</time>
      </trkpt>
      <trkpt lat="42.78505" lon="9.3435">
        <ele>152.886</ele>
        <time>2019-10-15T12:26:58.001Z</time>
      </trkpt>
      <trkpt lat="42.78506" lon="9.34349">
        <ele>152.886</ele>
        <time>2019-10-15T12:28:34.001Z</time>
      </trkpt>
      <trkpt lat="42.78516" lon="9.34358">
        <ele>157.811</ele>
        <time>2019-10-15T12:29:28.001Z</time>
      </trkpt>
      <trkpt lat="42.78512" lon="9.34382">
        <ele>158.239</ele>
        <time>2019-10-15T12:31:01.001Z</time>
      </trkpt>
      <trkpt lat="42.78493" lon="9.3437">
        <ele>154.348</ele>
        <time>2019-10-15T12:33:13.001Z</time>
      </trkpt>
      <trkpt lat="42.78501" lon="9.34427">
        <ele>150.991</ele>
        <time>2019-10-15T12:35:49.001Z</time>
      </trkpt>
      <trkpt lat="42.78492" lon="9.34487">
        <ele>144.708</ele>
        <time>2019-10-15T12:37:01.001Z</time>
      </trkpt>
      <trkpt lat="42.78508" lon="9.3447">
        <ele>137.514</ele>
        <time>2019-10-15T12:38:10.001Z</time>
      </trkpt>
      <trkpt lat="42.7849" lon="9.34422">
        <ele>149.6</ele>
        <time>2019-10-15T12:44:29.001Z</time>
      </trkpt>
      <trkpt lat="42.78529" lon="9.34453">
        <ele>157.81</ele>
        <time>2019-10-15T12:45:36.001Z</time>
      </trkpt>
      <trkpt lat="42.78525" lon="9.3446">
        <ele>167.404</ele>
        <time>2019-10-15T12:50:25.001Z</time>
      </trkpt>
      <trkpt lat="42.78512" lon="9.34447">
        <ele>169.345</ele>
        <time>2019-10-15T12:51:04.001Z</time>
      </trkpt>
      <trkpt lat="42.78514" lon="9.34444">
        <ele>168.446</ele>
        <time>2019-10-15T12:52:30.001Z</time>
      </trkpt>
      <trkpt lat="42.78517" lon="9.34425">
        <ele>209.115</ele>
        <time>2019-10-15T12:53:09.001Z</time>
      </trkpt>
      <trkpt lat="42.78503" lon="9.34443">
        <ele>206.946</ele>
        <time>2019-10-15T12:53:51.001Z</time>
      </trkpt>
      <trkpt lat="42.78511" lon="9.34436">
        <ele>201.252</ele>
        <time>2019-10-15T12:54:33.001Z</time>
      </trkpt>
      <trkpt lat="42.78487" lon="9.34433">
        <ele>152.584</ele>
        <time>2019-10-15T12:55:36.001Z</time>
      </trkpt>
      <trkpt lat="42.78498" lon="9.34452">
        <ele>144.695</ele>
        <time>2019-10-15T12:58:05.001Z</time>
      </trkpt>
      <trkpt lat="42.78499" lon="9.34475">
        <ele>172.42</ele>
        <time>2019-10-15T13:09:23.001Z</time>
      </trkpt>
      <trkpt lat="42.78503" lon="9.34457">
        <ele>138.519</ele>
        <time>2019-10-15T13:29:03.001Z</time>
      </trkpt>
      <trkpt lat="42.78508" lon="9.3445">
        <ele>132.152</ele>
        <time>2019-10-15T13:35:41Z</time>
      </trkpt>
      <trkpt lat="42.78496" lon="9.34461">
        <ele>137.63</ele>
        <time>2019-10-15T13:39:38Z</time>
      </trkpt>
      <trkpt lat="42.78503" lon="9.34445">
        <ele>119.495</ele>
        <time>2019-10-15T14:19:43Z</time>
      </trkpt>
      <trkpt lat="42.78495" lon="9.34445">
        <ele>133.735</ele>
        <time>2019-10-15T14:45:36Z</time>
      </trkpt>
      <trkpt lat="42.78504" lon="9.34452">
        <ele>126.819</ele>
        <time>2019-10-15T14:52:11Z</time>
      </trkpt>
      <trkpt lat="42.78502" lon="9.34445">
        <ele>131.186</ele>
        <time>2019-10-15T15:03:11Z</time>
      </trkpt>
      <trkpt lat="42.78512" lon="9.34445">
        <ele>111.6</ele>
        <time>2019-10-15T15:04:59Z</time>
      </trkpt>
      <trkpt lat="42.78516" lon="9.34456">
        <ele>123.499</ele>
        <time>2019-10-15T15:07:35Z</time>
      </trkpt>
      <trkpt lat="42.78511" lon="9.34453">
        <ele>120.383</ele>
        <time>2019-10-15T15:09:56Z</time>
      </trkpt>
      <trkpt lat="42.78506" lon="9.3446">
        <ele>116.052</ele>
        <time>2019-10-15T15:11:44Z</time>
      </trkpt>
      <trkpt lat="42.78508" lon="9.34463">
        <ele>121.004</ele>
        <time>2019-10-15T15:13:05.001Z</time>
      </trkpt>
      <trkpt lat="42.78507" lon="9.34452">
        <ele>134.627</ele>
        <time>2019-10-15T15:15:14.001Z</time>
      </trkpt>
      <trkpt lat="42.78499" lon="9.34482">
        <ele>154.459</ele>
        <time>2019-10-15T15:19:59.001Z</time>
      </trkpt>
      <trkpt lat="42.78481" lon="9.34485">
        <ele>151.619</ele>
        <time>2019-10-15T15:21:23.001Z</time>
      </trkpt>
      <trkpt lat="42.78348" lon="9.34431">
        <ele>134.515</ele>
        <time>2019-10-15T15:21:56.001Z</time>
      </trkpt>
      <trkpt lat="42.78285" lon="9.34248">
        <ele>123.893</ele>
        <time>2019-10-15T15:22:29.001Z</time>
      </trkpt>
      <trkpt lat="42.78129" lon="9.3424">
        <ele>120.609</ele>
        <time>2019-10-15T15:23:02Z</time>
      </trkpt>
      <trkpt lat="42.77916" lon="9.34312">
        <ele>112.627</ele>
        <time>2019-10-15T15:23:35.001Z</time>
      </trkpt>
      <trkpt lat="42.77704" lon="9.34309">
        <ele>101.441</ele>
        <time>2019-10-15T15:24:08.001Z</time>
      </trkpt>
      <trkpt lat="42.77613" lon="9.34489">
        <ele>93.692</ele>
        <time>2019-10-15T15:24:41.001Z</time>
      </trkpt>
      <trkpt lat="42.7746" lon="9.34341">
        <ele>85.228</ele>
        <time>2019-10-15T15:25:14.001Z</time>
      </trkpt>
      <trkpt lat="42.77373" lon="9.34117">
        <ele>87.28</ele>
        <time>2019-10-15T15:25:50.001Z</time>
      </trkpt>
      <trkpt lat="42.77222" lon="9.34169">
        <ele>85.222</ele>
        <time>2019-10-15T15:26:23.001Z</time>
      </trkpt>
      <trkpt lat="42.77099" lon="9.34302">
        <ele>74.341</ele>
        <time>2019-10-15T15:26:56.001Z</time>
      </trkpt>
      <trkpt lat="42.77015" lon="9.34337">
        <ele>79.844</ele>
        <time>2019-10-15T15:27:29.001Z</time>
      </trkpt>
      <trkpt lat="42.7685" lon="9.34213">
        <ele>65.032</ele>
        <time>2019-10-15T15:28:02Z</time>
      </trkpt>
      <trkpt lat="42.76715" lon="9.34029">
        <ele>56.276</ele>
        <time>2019-10-15T15:28:35.001Z</time>
      </trkpt>
      <trkpt lat="42.76528" lon="9.33873">
        <ele>43.828</ele>
        <time>2019-10-15T15:29:08.001Z</time>
      </trkpt>
      <trkpt lat="42.76357" lon="9.33813">
        <ele>34.059</ele>
        <time>2019-10-15T15:29:41.001Z</time>
      </trkpt>
      <trkpt lat="42.76303" lon="9.3392">
        <ele>36.276</ele>
        <time>2019-10-15T15:33:53.001Z</time>
      </trkpt>
      <trkpt lat="42.76201" lon="9.33957">
        <ele>34.569</ele>
        <time>2019-10-15T15:34:26.001Z</time>
      </trkpt>
      <trkpt lat="42.76126" lon="9.34115">
        <ele>33.173</ele>
        <time>2019-10-15T15:34:59.001Z</time>
      </trkpt>
      <trkpt lat="42.76131" lon="9.34318">
        <ele>29.369</ele>
        <time>2019-10-15T15:35:32.001Z</time>
      </trkpt>
      <trkpt lat="42.76128" lon="9.34549">
        <ele>27.392</ele>
        <time>2019-10-15T15:36:05.001Z</time>
      </trkpt>
      <trkpt lat="42.76024" lon="9.34606">
        <ele>25.534</ele>
        <time>2019-10-15T15:36:38.001Z</time>
      </trkpt>
      <trkpt lat="42.76034" lon="9.34452">
        <ele>26.731</ele>
        <time>2019-10-15T15:37:11.001Z</time>
      </trkpt>
      <trkpt lat="42.76011" lon="9.3434">
        <ele>35.602</ele>
        <time>2019-10-15T15:37:44.001Z</time>
      </trkpt>
      <trkpt lat="42.75997" lon="9.34229">
        <ele>33.179</ele>
        <time>2019-10-15T15:38:17.001Z</time>
      </trkpt>
      <trkpt lat="42.75975" lon="9.34095">
        <ele>43.322</ele>
        <time>2019-10-15T15:38:53.001Z</time>
      </trkpt>
      <trkpt lat="42.75927" lon="9.34002">
        <ele>45.447</ele>
        <time>2019-10-15T15:39:26.001Z</time>
      </trkpt>
      <trkpt lat="42.75846" lon="9.3394">
        <ele>51.964</ele>
        <time>2019-10-15T15:39:59.001Z</time>
      </trkpt>
      <trkpt lat="42.75712" lon="9.34007">
        <ele>53.232</ele>
        <time>2019-10-15T15:40:32.001Z</time>
      </trkpt>
      <trkpt lat="42.75638" lon="9.3415">
        <ele>49.769</ele>
        <time>2019-10-15T15:41:05.001Z</time>
      </trkpt>
      <trkpt lat="42.75542" lon="9.3413">
        <ele>56.613</ele>
        <time>2019-10-15T15:41:38.001Z</time>
      </trkpt>
      <trkpt lat="42.75455" lon="9.34151">
        <ele>61.846</ele>
        <time>2019-10-15T15:42:11.001Z</time>
      </trkpt>
      <trkpt lat="42.7539" lon="9.34227">
        <ele>69.992</ele>
        <time>2019-10-15T15:42:44.001Z</time>
      </trkpt>
      <trkpt lat="42.7531" lon="9.34286">
        <ele>72.927</ele>
        <time>2019-10-15T15:43:17.001Z</time>
      </trkpt>
      <trkpt lat="42.75252" lon="9.34353">
        <ele>78.313</ele>
        <time>2019-10-15T15:43:50.001Z</time>
      </trkpt>
      <trkpt lat="42.7517" lon="9.34282">
        <ele>75.659</ele>
        <time>2019-10-15T15:44:23.001Z</time>
      </trkpt>
      <trkpt lat="42.75075" lon="9.3432">
        <ele>76.947</ele>
        <time>2019-10-15T15:44:56.001Z</time>
      </trkpt>
      <trkpt lat="42.74977" lon="9.3438">
        <ele>84.109</ele>
        <time>2019-10-15T15:45:29.001Z</time>
      </trkpt>
      <trkpt lat="42.74744" lon="9.34484">
        <ele>69.861</ele>
        <time>2019-10-15T15:46:02Z</time>
      </trkpt>
      <trkpt lat="42.74577" lon="9.3456">
        <ele>54.894</ele>
        <time>2019-10-15T15:46:35.001Z</time>
      </trkpt>
      <trkpt lat="42.74407" lon="9.34583">
        <ele>47.526</ele>
        <time>2019-10-15T15:47:08.001Z</time>
      </trkpt>
      <trkpt lat="42.74278" lon="9.34676">
        <ele>50.834</ele>
        <time>2019-10-15T15:47:44.001Z</time>
      </trkpt>
      <trkpt lat="42.74059" lon="9.34724">
        <ele>38.547</ele>
        <time>2019-10-15T15:48:17.001Z</time>
      </trkpt>
      <trkpt lat="42.73884" lon="9.34877">
        <ele>34.6</ele>
        <time>2019-10-15T15:48:50.001Z</time>
      </trkpt>
      <trkpt lat="42.73868" lon="9.34551">
        <ele>26.91</ele>
        <time>2019-10-15T15:49:23.001Z</time>
      </trkpt>
      <trkpt lat="42.73683" lon="9.34548">
        <ele>6.001</ele>
        <time>2019-10-15T15:49:56.001Z</time>
      </trkpt>
      <trkpt lat="42.73546" lon="9.34679">
        <ele>2.888</ele>
        <time>2019-10-15T15:50:29.001Z</time>
      </trkpt>
      <trkpt lat="42.7348" lon="9.34609">
        <ele>0.814</ele>
        <time>2019-10-15T15:51:02Z</time>
      </trkpt>
      <trkpt lat="42.73459" lon="9.34491">
        <ele>3.1</ele>
        <time>2019-10-15T15:51:35.001Z</time>
      </trkpt>
      <trkpt lat="42.73372" lon="9.34437">
        <ele>16.78</ele>
        <time>2019-10-15T15:52:08.001Z</time>
      </trkpt>
      <trkpt lat="42.73287" lon="9.34449">
        <ele>17.485</ele>
        <time>2019-10-15T15:52:41.001Z</time>
      </trkpt>
      <trkpt lat="42.73199" lon="9.34499">
        <ele>21.866</ele>
        <time>2019-10-15T15:53:14.001Z</time>
      </trkpt>
      <trkpt lat="42.73096" lon="9.34502">
        <ele>26.215</ele>
        <time>2019-10-15T15:53:47.001Z</time>
      </trkpt>
      <trkpt lat="42.72924" lon="9.34529">
        <ele>21.499</ele>
        <time>2019-10-15T15:54:20.001Z</time>
      </trkpt>
      <trkpt lat="42.72925" lon="9.34362">
        <ele>13.329</ele>
        <time>2019-10-15T15:54:53.001Z</time>
      </trkpt>
      <trkpt lat="42.7293" lon="9.34227">
        <ele>16.991</ele>
        <time>2019-10-15T15:55:29.001Z</time>
      </trkpt>
      <trkpt lat="42.72952" lon="9.3423">
        <ele>11.262</ele>
        <time>2019-10-15T15:59:56.001Z</time>
      </trkpt>
      <trkpt lat="42.72972" lon="9.34187">
        <ele>13.154</ele>
        <time>2019-10-15T16:01:02Z</time>
      </trkpt>
    </trkseg>
  </trk>
</gpx>